PWSweather.com
Personal Weather Stations
Station Observations
HELOTES
Helotes Park Terrace, Helotes, TX 78023

Helotes Park TerraceHelotes, TX 78023

Lat: 29.57, Lon: -98.68

Elevation: 1060

Station Type: Ambient Weather WS-1090

Latest ConditionsUpdated 5:14:23 AM CDT Friday, May 27, 2016
Currently Today's Max Today's Min Today's Average
Temperature 74.5°F23.6°C 78.8°F26.0°C 74.5°F23.6°C 76.8°F24.9°C
Dew Point 71.1°F21.7°C 74.3°F23.5°C 70.7°F21.5°C 72.8°F22.7°C
Winds 0.7 mph NE1.1 kmh NE 4.7 mph ENE7.6 kmh ENE - 2.2 mph 3.5 kmh
Wind Gusts 1.8 mph2.9 kmh 6.0 mph9.7 kmh - -
Humidity 89% 89% 86% 87%
Pressure 29.63 in1003.4 mb 29.68 in1005.1 mb 29.61 in1002.7 mb -
Hour Temp Dew Point Humidity Winds Wind Gusts Pressure Precip Precip Rate Daily Precip Total
05:14 AM 74.5°F23.6°C 71.1°F21.7°C 89% 0.7 mph NE1.1 kmh NE 1.8 mph2.9 kmh 29.63 in1003.4 mb 0.00 in0.0 mm 0.00 in0.0 mm 0.00 in0.0 mm
05:09 AM 74.5°F23.6°C 71.1°F21.7°C 89% 1.5 mph NE2.4 kmh NE 2.0 mph3.2 kmh 29.63 in1003.4 mb 0.00 in0.0 mm 0.00 in0.0 mm 0.00 in0.0 mm
05:04 AM 74.5°F23.6°C 71.1°F21.7°C 89% 0.8 mph ENE1.3 kmh ENE 3.4 mph5.5 kmh 29.63 in1003.4 mb 0.00 in0.0 mm 0.00 in0.0 mm 0.00 in0.0 mm
04:59 AM 74.5°F23.6°C 71.1°F21.7°C 89% 2.3 mph ENE3.7 kmh ENE 3.4 mph5.5 kmh 29.62 in1003.0 mb 0.00 in0.0 mm 0.00 in0.0 mm 0.00 in0.0 mm
04:54 AM 74.5°F23.6°C 71.1°F21.7°C 89% 1.2 mph NNE1.9 kmh NNE 2.5 mph4.0 kmh 29.62 in1003.0 mb 0.00 in0.0 mm 0.00 in0.0 mm 0.00 in0.0 mm
04:49 AM 74.5°F23.6°C 71.1°F21.7°C 89% 1.0 mph NNE1.6 kmh NNE 3.8 mph6.1 kmh 29.62 in1003.0 mb 0.00 in0.0 mm 0.00 in0.0 mm 0.00 in0.0 mm
04:44 AM 74.5°F23.6°C 70.7°F21.5°C 88% 2.0 mph E3.2 kmh E 3.8 mph6.1 kmh 29.62 in1003.0 mb 0.00 in0.0 mm 0.00 in0.0 mm 0.00 in0.0 mm
04:39 AM 74.5°F23.6°C 70.7°F21.5°C 88% 1.6 mph NE2.6 kmh NE 3.4 mph5.5 kmh 29.62 in1003.0 mb 0.00 in0.0 mm 0.00 in0.0 mm 0.00 in0.0 mm
04:34 AM 74.7°F23.7°C 70.9°F21.6°C 88% 1.8 mph ENE2.9 kmh ENE 3.4 mph5.5 kmh 29.63 in1003.4 mb 0.00 in0.0 mm 0.00 in0.0 mm 0.00 in0.0 mm
04:29 AM 74.7°F23.7°C 70.9°F21.6°C 88% 2.2 mph E3.5 kmh E 3.4 mph5.5 kmh 29.62 in1003.0 mb 0.00 in0.0 mm 0.00 in0.0 mm 0.00 in0.0 mm
04:24 AM 74.7°F23.7°C 70.9°F21.6°C 88% 2.5 mph ENE4.0 kmh ENE 3.4 mph5.5 kmh 29.62 in1003.0 mb 0.00 in0.0 mm 0.00 in0.0 mm 0.00 in0.0 mm
04:19 AM 74.9°F23.8°C 71.1°F21.7°C 88% 2.5 mph ENE4.0 kmh ENE 3.4 mph5.5 kmh 29.61 in1002.7 mb 0.00 in0.0 mm 0.00 in0.0 mm 0.00 in0.0 mm
04:14 AM 74.9°F23.8°C 71.1°F21.7°C 88% 2.0 mph ENE3.2 kmh ENE 3.8 mph6.1 kmh 29.62 in1003.0 mb 0.00 in0.0 mm 0.00 in0.0 mm 0.00 in0.0 mm
04:09 AM 75.1°F23.9°C 71.0°F21.7°C 87% 1.9 mph NE3.1 kmh NE 3.8 mph6.1 kmh 29.62 in1003.0 mb 0.00 in0.0 mm 0.00 in0.0 mm 0.00 in0.0 mm
04:04 AM 75.2°F24.0°C 71.2°F21.8°C 87% 3.8 mph 6.1 kmh 3.8 mph6.1 kmh 29.63 in1003.4 mb 0.00 in0.0 mm 0.00 in0.0 mm 0.00 in0.0 mm
03:59 AM 75.4°F24.1°C 71.4°F21.9°C 87% 2.0 mph N3.2 kmh N 3.4 mph5.5 kmh 29.63 in1003.4 mb 0.00 in0.0 mm 0.00 in0.0 mm 0.00 in0.0 mm
03:54 AM 75.6°F24.2°C 71.5°F21.9°C 87% 2.3 mph NNE3.7 kmh NNE 4.7 mph7.6 kmh 29.63 in1003.4 mb 0.00 in0.0 mm 0.00 in0.0 mm 0.00 in0.0 mm
03:49 AM 75.6°F24.2°C 71.5°F21.9°C 87% 2.2 mph NE3.5 kmh NE 4.7 mph7.6 kmh 29.64 in1003.7 mb 0.00 in0.0 mm 0.00 in0.0 mm 0.00 in0.0 mm
03:44 AM 75.6°F24.2°C 71.5°F21.9°C 87% 2.1 mph NE3.4 kmh NE 4.0 mph6.4 kmh 29.64 in1003.7 mb 0.00 in0.0 mm 0.00 in0.0 mm 0.00 in0.0 mm
03:39 AM 76.0°F24.4°C 71.8°F22.1°C 87% 2.9 mph NE4.7 kmh NE 4.0 mph6.4 kmh 29.64 in1003.7 mb 0.00 in0.0 mm 0.00 in0.0 mm 0.00 in0.0 mm
03:34 AM 76.1°F24.5°C 72.0°F22.2°C 87% 2.1 mph W3.4 kmh W 4.0 mph6.4 kmh 29.64 in1003.7 mb 0.00 in0.0 mm 0.00 in0.0 mm 0.00 in0.0 mm
03:29 AM 76.5°F24.7°C 72.4°F22.4°C 87% 2.6 mph NNW4.2 kmh NNW 5.4 mph8.7 kmh 29.64 in1003.7 mb 0.00 in0.0 mm 0.00 in0.0 mm 0.00 in0.0 mm
03:24 AM 76.9°F24.9°C 73.1°F22.8°C 88% 2.0 mph ESE3.2 kmh ESE 5.4 mph8.7 kmh 29.65 in1004.1 mb 0.00 in0.0 mm 0.00 in0.0 mm 0.00 in0.0 mm
03:19 AM 76.9°F24.9°C 73.1°F22.8°C 88% 4.7 mph ENE7.6 kmh ENE 5.4 mph8.7 kmh 29.65 in1004.1 mb 0.00 in0.0 mm 0.00 in0.0 mm 0.00 in0.0 mm
03:14 AM 77.0°F25.0°C 72.9°F22.7°C 87% 3.1 mph ESE5.0 kmh ESE 3.4 mph5.5 kmh 29.65 in1004.1 mb 0.00 in0.0 mm 0.00 in0.0 mm 0.00 in0.0 mm
03:09 AM 76.9°F24.9°C 72.7°F22.6°C 87% 3.0 mph E4.8 kmh E 4.0 mph6.4 kmh 29.65 in1004.1 mb 0.00 in0.0 mm 0.00 in0.0 mm 0.00 in0.0 mm
03:04 AM 77.0°F25.0°C 72.9°F22.7°C 87% 3.1 mph E5.0 kmh E 5.4 mph8.7 kmh 29.65 in1004.1 mb 0.00 in0.0 mm 0.00 in0.0 mm 0.00 in0.0 mm
02:59 AM 77.0°F25.0°C 72.9°F22.7°C 87% 3.6 mph N5.8 kmh N 5.4 mph8.7 kmh 29.65 in1004.1 mb 0.00 in0.0 mm 0.00 in0.0 mm 0.00 in0.0 mm
02:54 AM 77.0°F25.0°C 72.9°F22.7°C 87% 1.7 mph NE2.7 kmh NE 4.0 mph6.4 kmh 29.65 in1004.1 mb 0.00 in0.0 mm 0.00 in0.0 mm 0.00 in0.0 mm
02:49 AM 77.0°F25.0°C 72.9°F22.7°C 87% 2.6 mph E4.2 kmh E 4.0 mph6.4 kmh 29.65 in1004.1 mb 0.00 in0.0 mm 0.00 in0.0 mm 0.00 in0.0 mm
02:44 AM 77.2°F25.1°C 73.1°F22.8°C 87% 1.9 mph ENE3.1 kmh ENE 2.5 mph4.0 kmh 29.65 in1004.1 mb 0.00 in0.0 mm 0.00 in0.0 mm 0.00 in0.0 mm
02:39 AM 77.2°F25.1°C 73.1°F22.8°C 87% 1.8 mph E2.9 kmh E 3.8 mph6.1 kmh 29.65 in1004.1 mb 0.00 in0.0 mm 0.00 in0.0 mm 0.00 in0.0 mm
02:34 AM 77.2°F25.1°C 73.1°F22.8°C 87% 1.9 mph E3.1 kmh E 6.0 mph9.7 kmh 29.66 in1004.4 mb 0.00 in0.0 mm 0.00 in0.0 mm 0.00 in0.0 mm
02:29 AM 77.4°F25.2°C 73.3°F22.9°C 87% 3.2 mph E5.1 kmh E 6.0 mph9.7 kmh 29.66 in1004.4 mb 0.00 in0.0 mm 0.00 in0.0 mm 0.00 in0.0 mm
02:24 AM 77.4°F25.2°C 73.3°F22.9°C 87% 2.4 mph E3.9 kmh E 3.1 mph5.0 kmh 29.67 in1004.7 mb 0.00 in0.0 mm 0.00 in0.0 mm 0.00 in0.0 mm
02:19 AM 77.4°F25.2°C 73.3°F22.9°C 87% 1.7 mph NNE2.7 kmh NNE 4.0 mph6.4 kmh 29.67 in1004.7 mb 0.00 in0.0 mm 0.00 in0.0 mm 0.00 in0.0 mm
02:14 AM 77.4°F25.2°C 73.3°F22.9°C 87% 2.0 mph ENE3.2 kmh ENE 4.0 mph6.4 kmh 29.67 in1004.7 mb 0.00 in0.0 mm 0.00 in0.0 mm 0.00 in0.0 mm
02:09 AM 77.4°F25.2°C 73.3°F22.9°C 87% 3.0 mph NE4.8 kmh NE 3.6 mph5.8 kmh 29.67 in1004.7 mb 0.00 in0.0 mm 0.00 in0.0 mm 0.00 in0.0 mm
02:04 AM 77.4°F25.2°C 73.3°F22.9°C 87% 1.9 mph NE3.1 kmh NE 3.8 mph6.1 kmh 29.67 in1004.7 mb 0.00 in0.0 mm 0.00 in0.0 mm 0.00 in0.0 mm
01:59 AM 77.6°F25.3°C 73.4°F23.0°C 87% 2.0 mph N3.2 kmh N 4.0 mph6.4 kmh 29.67 in1004.7 mb 0.00 in0.0 mm 0.00 in0.0 mm 0.00 in0.0 mm
01:54 AM 77.6°F25.3°C 73.4°F23.0°C 87% 2.4 mph NE3.9 kmh NE 4.7 mph7.6 kmh 29.68 in1005.1 mb 0.00 in0.0 mm 0.00 in0.0 mm 0.00 in0.0 mm
01:49 AM 77.6°F25.3°C 73.4°F23.0°C 87% 3.7 mph 6.0 kmh 4.7 mph7.6 kmh 29.68 in1005.1 mb 0.00 in0.0 mm 0.00 in0.0 mm 0.00 in0.0 mm
01:44 AM 77.6°F25.3°C 73.4°F23.0°C 87% 2.4 mph ESE3.9 kmh ESE 5.1 mph8.2 kmh 29.68 in1005.1 mb 0.00 in0.0 mm 0.00 in0.0 mm 0.00 in0.0 mm
01:39 AM 77.8°F25.4°C 73.6°F23.1°C 87% 2.4 mph 3.9 kmh 5.1 mph8.2 kmh 29.68 in1005.1 mb 0.00 in0.0 mm 0.00 in0.0 mm 0.00 in0.0 mm
01:34 AM 77.8°F25.4°C 73.6°F23.1°C 87% 1.8 mph ESE2.9 kmh ESE 3.8 mph6.1 kmh 29.68 in1005.1 mb 0.00 in0.0 mm 0.00 in0.0 mm 0.00 in0.0 mm
01:29 AM 77.9°F25.5°C 73.8°F23.2°C 87% 2.4 mph NE3.9 kmh NE 4.0 mph6.4 kmh 29.68 in1005.1 mb 0.00 in0.0 mm 0.00 in0.0 mm 0.00 in0.0 mm
01:24 AM 77.9°F25.5°C 73.8°F23.2°C 87% 1.7 mph NE2.7 kmh NE 4.0 mph6.4 kmh 29.68 in1005.1 mb 0.00 in0.0 mm 0.00 in0.0 mm 0.00 in0.0 mm
01:19 AM 77.9°F25.5°C 73.8°F23.2°C 87% 2.6 mph S4.2 kmh S 3.8 mph6.1 kmh 29.68 in1005.1 mb 0.00 in0.0 mm 0.00 in0.0 mm 0.00 in0.0 mm
01:14 AM 78.1°F25.6°C 74.0°F23.3°C 87% 1.1 mph ESE1.8 kmh ESE 3.4 mph5.5 kmh 29.68 in1005.1 mb 0.00 in0.0 mm 0.00 in0.0 mm 0.00 in0.0 mm
01:09 AM 78.1°F25.6°C 74.0°F23.3°C 87% 3.4 mph E5.5 kmh E 4.3 mph6.9 kmh 29.68 in1005.1 mb 0.00 in0.0 mm 0.00 in0.0 mm 0.00 in0.0 mm
01:04 AM 78.1°F25.6°C 74.0°F23.3°C 87% 1.1 mph NE1.8 kmh NE 4.3 mph6.9 kmh 29.68 in1005.1 mb 0.00 in0.0 mm 0.00 in0.0 mm 0.00 in0.0 mm
12:59 AM 78.3°F25.7°C 74.2°F23.4°C 87% 2.2 mph E3.5 kmh E 4.0 mph6.4 kmh 29.68 in1005.1 mb 0.00 in0.0 mm 0.00 in0.0 mm 0.00 in0.0 mm
12:54 AM 78.3°F25.7°C 74.2°F23.4°C 87% 1.6 mph E2.6 kmh E 2.2 mph3.5 kmh 29.68 in1005.1 mb 0.00 in0.0 mm 0.00 in0.0 mm 0.00 in0.0 mm
12:49 AM 78.3°F25.7°C 74.2°F23.4°C 87% 2.1 mph SE3.4 kmh SE 4.0 mph6.4 kmh 29.68 in1005.1 mb 0.00 in0.0 mm 0.00 in0.0 mm 0.00 in0.0 mm
12:44 AM 78.5°F25.8°C 74.3°F23.5°C 87% 3.0 mph ESE4.8 kmh ESE 4.0 mph6.4 kmh 29.68 in1005.1 mb 0.00 in0.0 mm 0.00 in0.0 mm 0.00 in0.0 mm
12:39 AM 78.5°F25.8°C 74.0°F23.3°C 86% 1.8 mph E2.9 kmh E 3.4 mph5.5 kmh 29.68 in1005.1 mb 0.00 in0.0 mm 0.00 in0.0 mm 0.00 in0.0 mm
12:34 AM 78.5°F25.8°C 74.0°F23.3°C 86% 1.1 mph E1.8 kmh E 3.4 mph5.5 kmh 29.68 in1005.1 mb 0.00 in0.0 mm 0.00 in0.0 mm 0.00 in0.0 mm
12:29 AM 78.5°F25.8°C 74.0°F23.3°C 86% 2.3 mph E3.7 kmh E 3.4 mph5.5 kmh 29.68 in1005.1 mb 0.00 in0.0 mm 0.00 in0.0 mm 0.00 in0.0 mm
12:24 AM 78.5°F25.8°C 74.0°F23.3°C 86% 2.6 mph ESE4.2 kmh ESE 3.4 mph5.5 kmh 29.68 in1005.1 mb 0.00 in0.0 mm 0.00 in0.0 mm 0.00 in0.0 mm
12:19 AM 78.7°F25.9°C 74.2°F23.4°C 86% 1.5 mph SSW2.4 kmh SSW 2.9 mph4.7 kmh 29.67 in1004.7 mb 0.00 in0.0 mm 0.00 in0.0 mm 0.00 in0.0 mm
12:14 AM 78.7°F25.9°C 74.2°F23.4°C 86% 2.4 mph ESE3.9 kmh ESE 3.1 mph5.0 kmh 29.67 in1004.7 mb 0.00 in0.0 mm 0.00 in0.0 mm 0.00 in0.0 mm
12:09 AM 78.8°F26.0°C 74.3°F23.5°C 86% 2.6 mph E4.2 kmh E 3.1 mph5.0 kmh 29.67 in1004.7 mb 0.00 in0.0 mm 0.00 in0.0 mm 0.00 in0.0 mm
12:04 AM 78.8°F26.0°C 74.3°F23.5°C 86% 1.4 mph E2.3 kmh E 3.6 mph5.8 kmh 29.67 in1004.7 mb 0.00 in0.0 mm 0.00 in0.0 mm 0.00 in0.0 mm